Time;durP1;ratioP1;P1;durP2;ratioP2;P2;SDS_P1;SDS_P2;PMS_P1;PMS_P2;Temp;Humidity;BMP_temperature;BMP_pressure;BME280_temperature;BME280_humidity;BME280_pressure;Samples;Min_cycle;Max_cycle;Signal;HPM_P1;HPM_P2
2022/09/02 00:01:36;;;;;;;2.72;1.40;;;15.30;99.90;;;;;;5109393;28;20126;-83
2022/09/02 00:04:12;;;;;;;2.75;1.73;;;15.20;99.90;;;;;;5099710;28;20039;-84
2022/09/02 00:06:39;;;;;;;2.33;1.30;;;15.20;99.90;;;;;;5100190;28;20044;-83
2022/09/02 00:09:07;;;;;;;4.78;1.58;;;15.20;99.90;;;;;;5092045;28;20044;-83
2022/09/02 00:11:34;;;;;;;1.80;1.40;;;15.10;99.90;;;;;;5075271;28;20032;-83
2022/09/02 00:14:03;;;;;;;2.40;1.50;;;15.10;99.90;;;;;;5091131;28;20036;-84
2022/09/02 00:16:29;;;;;;;3.47;1.90;;;15.00;99.90;;;;;;5075409;28;20080;-83
2022/09/02 00:18:56;;;;;;;2.70;1.48;;;15.00;99.90;;;;;;5091321;28;20518;-84
2022/09/02 00:21:23;;;;;;;2.67;1.58;;;15.00;99.90;;;;;;5091592;28;20561;-84
2022/09/02 00:23:49;;;;;;;2.00;1.52;;;15.00;99.90;;;;;;5076046;28;20077;-83
2022/09/02 00:26:16;;;;;;;2.28;1.58;;;14.90;99.90;;;;;;5100492;28;20043;-84
2022/09/02 00:28:42;;;;;;;2.58;1.55;;;14.90;99.90;;;;;;5110004;28;20044;-84
2022/09/02 00:31:08;;;;;;;2.47;1.58;;;14.90;99.90;;;;;;5100590;28;20571;-83
2022/09/02 00:33:34;;;;;;;2.80;1.60;;;14.80;99.90;;;;;;5095983;28;20032;-83
2022/09/02 00:36:01;;;;;;;3.35;1.50;;;14.80;99.90;;;;;;5091319;28;20114;-82
2022/09/02 00:38:28;;;;;;;4.28;1.40;;;14.70;99.90;;;;;;5091551;28;20039;-84
2022/09/02 00:40:54;;;;;;;3.83;1.60;;;14.70;99.90;;;;;;5091734;28;20047;-83
2022/09/02 00:43:59;;;;;;;2.38;1.48;;;14.70;99.90;;;;;;5105980;28;20028;-83
2022/09/02 00:46:27;;;;;;;2.42;1.80;;;14.60;99.90;;;;;;5073848;28;20040;-83
2022/09/02 00:48:59;;;;;;;2.50;1.45;;;14.60;99.90;;;;;;5096129;28;20043;-83
2022/09/02 00:51:30;;;;;;;4.00;1.50;;;14.60;99.90;;;;;;5108322;28;20085;-83
2022/09/02 00:53:57;;;;;;;4.55;1.70;;;14.60;99.90;;;;;;5088812;28;20081;-83
2022/09/02 00:56:27;;;;;;;3.55;1.60;;;14.50;99.90;;;;;;5102177;28;20035;-83
2022/09/02 00:58:54;;;;;;;2.33;1.70;;;14.50;99.90;;;;;;5106294;28;20043;-85
2022/09/02 01:01:21;;;;;;;1.65;1.40;;;14.40;99.90;;;;;;5091300;28;20045;-84
2022/09/02 01:03:48;;;;;;;2.85;1.23;;;14.40;99.90;;;;;;5085557;28;20042;-85
2022/09/02 01:06:15;;;;;;;2.42;1.50;;;14.40;99.90;;;;;;5104655;28;20049;-83
2022/09/02 01:08:53;;;;;;;3.67;1.50;;;14.30;99.90;;;;;;5109953;28;20032;-83
2022/09/02 01:11:20;;;;;;;1.70;1.40;;;14.30;99.90;;;;;;5101865;28;20047;-84
2022/09/02 01:13:46;;;;;;;3.45;1.50;;;14.30;99.90;;;;;;5084485;28;20111;-84
2022/09/02 01:16:26;;;;;;;3.28;1.70;;;14.30;99.90;;;;;;5105836;28;20043;-83
2022/09/02 01:18:56;;;;;;;1.70;1.33;;;14.20;99.90;;;;;;5105024;28;20040;-82
2022/09/02 01:21:22;;;;;;;1.83;1.45;;;14.20;99.90;;;;;;5081186;28;20085;-82
2022/09/02 01:23:49;;;;;;;1.60;1.30;;;14.20;99.90;;;;;;5083320;28;20036;-83
2022/09/02 01:26:15;;;;;;;2.53;1.30;;;14.10;99.90;;;;;;5104303;28;20054;-82
2022/09/02 01:28:41;;;;;;;2.85;1.40;;;14.10;99.90;;;;;;5080017;28;20036;-82
2022/09/02 01:31:06;;;;;;;2.88;1.67;;;14.00;99.90;;;;;;5082687;28;20370;-83
2022/09/02 01:33:32;;;;;;;2.67;1.40;;;14.00;99.90;;;;;;5106764;28;20051;-83
2022/09/02 01:35:58;;;;;;;3.22;1.50;;;14.00;99.90;;;;;;5107095;28;20043;-84
2022/09/02 01:38:24;;;;;;;2.33;1.40;;;13.90;99.90;;;;;;5106049;28;20104;-83
2022/09/02 01:40:51;;;;;;;2.50;1.40;;;13.90;99.90;;;;;;5086028;28;20038;-83
2022/09/02 01:43:20;;;;;;;4.20;1.50;;;13.90;99.90;;;;;;5108168;28;20090;-83
2022/09/02 01:45:47;;;;;;;2.55;1.50;;;13.80;99.90;;;;;;5098040;28;20098;-83
2022/09/02 01:48:14;;;;;;;1.75;1.20;;;13.80;99.90;;;;;;5098327;28;20040;-83
2022/09/02 01:50:46;;;;;;;2.92;1.40;;;13.80;99.90;;;;;;5107336;28;20164;-83
2022/09/02 01:53:11;;;;;;;1.90;1.50;;;13.80;99.90;;;;;;5106545;28;20489;-83
2022/09/02 01:55:37;;;;;;;2.63;1.50;;;13.70;99.90;;;;;;5105945;28;20028;-83
2022/09/02 01:58:03;;;;;;;2.13;1.35;;;13.70;99.90;;;;;;5111047;28;20504;-84
2022/09/02 02:00:29;;;;;;;2.72;1.50;;;13.60;99.90;;;;;;5103762;28;20385;-83
2022/09/02 02:02:55;;;;;;;2.70;1.60;;;13.70;99.90;;;;;;5113279;28;20073;-83
2022/09/02 02:05:21;;;;;;;2.17;1.42;;;13.70;99.90;;;;;;5110421;28;20397;-82
2022/09/02 02:07:47;;;;;;;3.42;1.42;;;13.60;99.90;;;;;;5111789;28;20032;-84
2022/09/02 02:10:15;;;;;;;1.80;1.30;;;13.60;99.90;;;;;;5110140;28;20050;-84
2022/09/02 02:12:42;;;;;;;2.67;1.33;;;13.60;99.90;;;;;;5105562;28;20035;-84
2022/09/02 02:15:13;;;;;;;2.40;1.40;;;13.60;99.90;;;;;;5112855;28;20390;-82
2022/09/02 02:17:39;;;;;;;1.90;1.48;;;13.60;99.90;;;;;;5110950;28;20040;-84
2022/09/02 02:20:06;;;;;;;3.17;1.50;;;13.60;99.90;;;;;;5091060;28;20051;-84
2022/09/02 02:22:32;;;;;;;2.05;1.30;;;13.60;99.90;;;;;;5109013;28;20050;-83
2022/09/02 02:24:58;;;;;;;3.85;1.30;;;13.50;99.90;;;;;;5109267;28;20039;-82
2022/09/02 02:27:24;;;;;;;2.13;1.30;;;13.50;99.90;;;;;;5112847;28;20529;-82
2022/09/02 02:29:50;;;;;;;3.45;1.30;;;13.50;99.90;;;;;;5112734;28;21704;-83
2022/09/02 02:32:17;;;;;;;2.85;1.20;;;13.50;99.90;;;;;;5111485;28;20133;-82
2022/09/02 02:34:44;;;;;;;2.50;1.50;;;13.50;99.90;;;;;;5112441;28;20032;-82
2022/09/02 02:37:11;;;;;;;5.03;1.45;;;13.40;99.90;;;;;;5101582;28;20048;-82
2022/09/02 02:39:41;;;;;;;2.05;1.50;;;13.40;99.90;;;;;;5110480;28;20036;-83
2022/09/02 02:42:07;;;;;;;2.25;1.40;;;13.40;99.90;;;;;;5114152;28;20039;-83
2022/09/02 02:44:33;;;;;;;2.83;1.40;;;13.40;99.90;;;;;;5113195;28;20502;-85
2022/09/02 02:46:59;;;;;;;2.35;1.30;;;13.40;99.90;;;;;;5113357;28;20039;-82
2022/09/02 02:49:26;;;;;;;2.63;1.40;;;13.40;99.90;;;;;;5104950;28;20043;-82
2022/09/02 02:51:52;;;;;;;4.13;1.30;;;13.30;99.90;;;;;;5092225;28;20439;-83
2022/09/02 02:54:19;;;;;;;1.55;1.20;;;13.30;99.90;;;;;;5109922;28;20036;-83
2022/09/02 02:56:45;;;;;;;2.25;1.30;;;13.30;99.90;;;;;;5104850;28;20038;-82
2022/09/02 02:59:10;;;;;;;3.22;1.42;;;13.30;99.90;;;;;;5089183;28;20043;-83
2022/09/02 03:01:36;;;;;;;3.47;1.40;;;13.30;99.90;;;;;;5107942;28;20035;-82
2022/09/02 03:04:03;;;;;;;1.80;1.45;;;13.20;99.90;;;;;;5106370;28;20088;-83
2022/09/02 03:06:28;;;;;;;1.90;1.20;;;13.20;99.90;;;;;;5108437;28;20039;-81
2022/09/02 03:08:55;;;;;;;2.85;1.38;;;13.20;99.90;;;;;;5093016;28;20039;-82
2022/09/02 03:11:21;;;;;;;2.05;1.50;;;13.20;99.90;;;;;;5112127;27;20106;-83
2022/09/02 03:13:48;;;;;;;2.45;1.60;;;13.10;99.90;;;;;;5113836;28;20457;-83
2022/09/02 03:16:14;;;;;;;3.83;1.40;;;13.10;99.90;;;;;;5104579;28;20067;-82
2022/09/02 03:18:39;;;;;;;1.88;1.58;;;13.10;99.90;;;;;;5111225;28;20140;-83
2022/09/02 03:21:07;;;;;;;3.67;1.50;;;13.20;99.90;;;;;;5108539;28;20032;-82
2022/09/02 03:23:33;;;;;;;2.25;1.42;;;13.10;99.90;;;;;;5104109;28;20120;-81
2022/09/02 03:25:58;;;;;;;2.80;1.58;;;13.10;99.90;;;;;;5104865;28;20031;-82
2022/09/02 03:28:24;;;;;;;2.13;1.60;;;13.00;99.90;;;;;;5099694;28;20054;-82
2022/09/02 03:30:49;;;;;;;3.05;1.55;;;13.00;99.90;;;;;;5106720;28;20126;-82
2022/09/02 03:33:15;;;;;;;2.72;1.50;;;13.00;99.90;;;;;;5109280;28;20061;-82
2022/09/02 03:35:42;;;;;;;2.05;1.60;;;13.00;99.90;;;;;;5093391;28;20490;-82
2022/09/02 03:38:09;;;;;;;2.30;1.70;;;13.00;99.90;;;;;;5108708;28;20515;-82
2022/09/02 03:40:35;;;;;;;3.08;1.45;;;13.00;99.90;;;;;;5108108;28;20089;-83
2022/09/02 03:43:01;;;;;;;2.63;1.50;;;12.90;99.90;;;;;;5107903;28;20055;-84
2022/09/02 03:45:27;;;;;;;2.50;1.50;;;12.90;99.90;;;;;;5105780;28;20040;-83
2022/09/02 03:47:53;;;;;;;3.30;1.70;;;12.90;99.90;;;;;;5106722;28;20465;-84
2022/09/02 03:50:23;;;;;;;3.17;1.88;;;12.80;99.90;;;;;;5107021;28;20497;-84
2022/09/02 03:52:49;;;;;;;2.78;1.60;;;12.90;99.90;;;;;;5083419;28;20036;-83
2022/09/02 03:55:15;;;;;;;3.22;1.58;;;12.80;99.90;;;;;;5106119;28;20505;-84
2022/09/02 03:57:41;;;;;;;3.45;1.55;;;12.80;99.90;;;;;;5105752;28;20400;-81
2022/09/02 04:00:09;;;;;;;2.05;1.50;;;12.80;99.90;;;;;;5110109;28;20031;-83
2022/09/02 04:02:34;;;;;;;2.75;1.73;;;12.70;99.90;;;;;;5107612;28;20047;-82
2022/09/02 04:05:00;;;;;;;2.75;1.52;;;12.70;99.90;;;;;;5107727;28;20047;-83
2022/09/02 04:07:26;;;;;;;1.98;1.55;;;12.60;99.90;;;;;;5108306;28;20047;-83
2022/09/02 04:09:52;;;;;;;9.63;1.80;;;12.60;99.90;;;;;;5092692;28;20035;-83
2022/09/02 04:12:17;;;;;;;10.00;1.98;;;12.60;99.90;;;;;;5093133;28;20118;-83
2022/09/02 04:14:43;;;;;;;2.85;1.80;;;12.60;99.90;;;;;;5108145;28;20027;-84
2022/09/02 04:17:08;;;;;;;5.43;1.83;;;12.50;99.90;;;;;;5090686;28;20036;-82
2022/09/02 04:19:36;;;;;;;4.18;1.80;;;12.50;99.90;;;;;;5110033;28;20147;-83
2022/09/02 04:22:02;;;;;;;3.38;1.95;;;12.50;99.90;;;;;;5103301;28;20111;-84
2022/09/02 04:24:28;;;;;;;2.35;1.55;;;12.50;99.90;;;;;;5087217;28;20519;-83
2022/09/02 04:26:54;;;;;;;2.60;1.70;;;12.40;99.90;;;;;;5103397;28;20040;-83
2022/09/02 04:29:19;;;;;;;4.70;1.90;;;12.40;99.90;;;;;;5093333;28;20047;-82
2022/09/02 04:31:45;;;;;;;3.03;2.00;;;12.40;99.90;;;;;;5089195;28;20027;-82
2022/09/02 04:34:10;;;;;;;2.80;1.90;;;12.40;99.90;;;;;;5105984;28;20035;-82
2022/09/02 04:36:36;;;;;;;2.60;1.75;;;12.40;99.90;;;;;;5109164;28;20034;-82
2022/09/02 04:39:02;;;;;;;3.25;1.70;;;12.40;99.90;;;;;;5109963;28;20031;-83
2022/09/02 04:41:29;;;;;;;2.20;1.77;;;12.30;99.90;;;;;;5105197;28;20096;-83
2022/09/02 04:43:57;;;;;;;2.60;1.88;;;12.30;99.90;;;;;;5109758;28;20046;-83
2022/09/02 04:46:23;;;;;;;4.63;1.80;;;12.30;99.90;;;;;;5110994;28;20112;-81
2022/09/02 04:48:48;;;;;;;3.53;1.77;;;12.30;99.90;;;;;;5083900;28;20040;-82
2022/09/02 04:51:17;;;;;;;2.63;1.70;;;12.30;99.90;;;;;;5099992;28;20040;-83
2022/09/02 04:53:44;;;;;;;2.40;1.70;;;12.30;99.90;;;;;;5111736;28;20035;-84
2022/09/02 04:56:12;;;;;;;2.30;1.70;;;12.30;99.90;;;;;;5111023;28;20062;-83
2022/09/02 04:58:38;;;;;;;2.95;1.90;;;12.30;99.90;;;;;;5103064;28;20045;-83
2022/09/02 05:01:08;;;;;;;3.67;1.60;;;12.30;99.90;;;;;;5106556;28;20119;-83
2022/09/02 05:03:35;;;;;;;2.60;1.75;;;12.30;99.90;;;;;;5102037;28;20039;-84
2022/09/02 05:06:07;;;;;;;2.00;1.80;;;12.30;99.90;;;;;;5092444;28;20039;-84
2022/09/02 05:08:35;;;;;;;5.13;1.98;;;12.30;99.90;;;;;;5108957;28;20040;-81
2022/09/02 05:11:07;;;;;;;4.75;2.10;;;12.40;99.90;;;;;;5087470;28;20118;-81
2022/09/02 05:13:33;;;;;;;4.10;1.83;;;12.40;99.90;;;;;;5106733;28;20039;-81
2022/09/02 05:15:58;;;;;;;4.18;1.92;;;12.40;99.90;;;;;;5103586;28;20027;-82
2022/09/02 05:18:24;;;;;;;3.05;1.90;;;12.50;99.90;;;;;;5103756;28;20043;-84
2022/09/02 05:20:50;;;;;;;3.83;1.80;;;12.50;99.90;;;;;;5087847;28;20118;-83
2022/09/02 05:23:15;;;;;;;2.63;1.80;;;12.50;99.90;;;;;;5109431;28;20047;-82
2022/09/02 05:25:41;;;;;;;3.88;1.80;;;12.50;99.90;;;;;;5100378;28;20036;-82
2022/09/02 05:28:07;;;;;;;4.18;2.10;;;12.60;99.90;;;;;;5086545;28;20036;-82
2022/09/02 05:30:34;;;;;;;4.05;2.10;;;12.70;99.90;;;;;;5102802;28;20046;-82
2022/09/02 05:33:00;;;;;;;3.75;1.80;;;12.70;99.90;;;;;;5109652;28;20086;-80
2022/09/02 05:35:26;;;;;;;4.57;2.10;;;12.80;99.90;;;;;;5102811;28;20071;-82
2022/09/02 05:37:51;;;;;;;3.70;2.25;;;12.90;99.90;;;;;;5105003;28;20032;-84
2022/09/02 05:40:17;;;;;;;6.53;2.00;;;12.90;99.90;;;;;;5103837;28;20409;-82
2022/09/02 05:42:43;;;;;;;4.13;2.03;;;13.00;99.90;;;;;;5110503;28;20035;-83
2022/09/02 05:45:10;;;;;;;4.68;2.17;;;13.00;99.90;;;;;;5080565;28;20409;-79
2022/09/02 05:47:36;;;;;;;3.08;2.10;;;13.10;99.90;;;;;;5106084;28;20079;-83
2022/09/02 05:50:02;;;;;;;4.47;1.90;;;13.20;99.90;;;;;;5103961;28;20113;-82
2022/09/02 05:52:29;;;;;;;2.65;2.28;;;13.30;99.90;;;;;;5109023;28;20035;-81
2022/09/02 05:54:55;;;;;;;2.65;1.90;;;13.40;99.90;;;;;;5099631;28;20548;-83
2022/09/02 05:57:21;;;;;;;2.47;1.83;;;13.40;99.90;;;;;;5090743;28;20040;-82
2022/09/02 05:59:48;;;;;;;3.88;2.15;;;13.50;99.90;;;;;;5103682;28;20097;-82
2022/09/02 06:02:16;;;;;;;2.83;2.13;;;13.60;99.90;;;;;;5099824;28;20134;-81
2022/09/02 06:04:47;;;;;;;2.65;1.95;;;13.70;99.90;;;;;;5090481;28;20123;-83
2022/09/02 06:07:15;;;;;;;2.65;2.10;;;13.80;99.90;;;;;;5100011;28;20044;-81
2022/09/02 06:09:43;;;;;;;3.47;2.10;;;13.90;99.90;;;;;;5096937;28;20039;-80
2022/09/02 06:12:10;;;;;;;4.28;2.00;;;13.90;99.90;;;;;;5106041;28;20047;-80
2022/09/02 06:14:36;;;;;;;3.40;1.98;;;14.00;99.90;;;;;;5104481;28;20028;-83
2022/09/02 06:17:03;;;;;;;2.65;1.98;;;14.10;99.90;;;;;;5090839;28;20080;-84
2022/09/02 06:19:31;;;;;;;2.92;2.05;;;14.20;99.90;;;;;;5103988;28;20096;-83
2022/09/02 06:21:58;;;;;;;4.65;2.10;;;14.30;99.90;;;;;;5087169;28;20039;-81
2022/09/02 06:24:25;;;;;;;2.50;2.05;;;14.30;99.90;;;;;;5108636;28;20044;-83
2022/09/02 06:26:54;;;;;;;2.75;2.33;;;14.40;99.90;;;;;;5111329;28;20447;-84
2022/09/02 06:29:21;;;;;;;3.10;2.17;;;14.50;99.90;;;;;;5100522;28;20447;-82
2022/09/02 06:31:48;;;;;;;4.95;2.05;;;14.60;99.90;;;;;;5104878;28;20035;-82
2022/09/02 06:34:15;;;;;;;3.00;2.20;;;14.70;99.90;;;;;;5110000;28;20061;-81
2022/09/02 06:36:46;;;;;;;3.50;2.17;;;14.70;99.90;;;;;;5086554;28;20031;-80
2022/09/02 06:39:15;;;;;;;4.32;2.10;;;14.80;99.90;;;;;;5104060;28;20040;-81
2022/09/02 06:41:43;;;;;;;6.82;2.00;;;14.90;99.90;;;;;;5110375;28;20040;-81
2022/09/02 06:44:10;;;;;;;4.13;2.13;;;15.00;99.90;;;;;;5098251;28;20112;-81
2022/09/02 06:46:39;;;;;;;7.28;2.08;;;15.10;99.90;;;;;;5109092;28;20046;-81
2022/09/02 06:49:07;;;;;;;4.43;1.90;;;15.20;99.90;;;;;;5105982;28;20047;-83
2022/09/02 06:51:40;;;;;;;3.92;2.00;;;15.20;99.90;;;;;;5113774;28;20043;-84
2022/09/02 06:54:09;;;;;;;4.85;2.00;;;15.40;99.90;;;;;;5105679;28;20032;-85
2022/09/02 06:56:35;;;;;;;3.22;1.90;;;15.50;99.90;;;;;;5107592;28;20128;-82
2022/09/02 06:59:03;;;;;;;2.88;2.17;;;15.60;99.90;;;;;;5105903;28;20031;-82
2022/09/02 07:01:30;;;;;;;3.55;1.90;;;15.70;99.90;;;;;;5103812;28;20080;-80
2022/09/02 07:06:46;;;;;;;3.85;2.15;;;15.90;99.90;;;;;;5110441;28;20039;-84
2022/09/02 07:09:15;;;;;;;3.55;1.85;;;16.10;99.90;;;;;;5085787;28;20157;-83
2022/09/02 07:11:40;;;;;;;3.83;2.00;;;16.30;99.90;;;;;;5104466;28;20027;-82
2022/09/02 07:14:06;;;;;;;4.95;2.50;;;16.30;99.90;;;;;;5102557;28;20196;-80
2022/09/02 07:16:41;;;;;;;3.85;2.10;;;16.50;99.90;;;;;;5094911;28;20036;-82
2022/09/02 07:19:06;;;;;;;4.38;2.40;;;16.50;99.90;;;;;;5098002;28;20393;-80
2022/09/02 07:21:32;;;;;;;2.85;2.05;;;16.60;99.90;;;;;;5105683;28;20039;-83
2022/09/02 07:23:58;;;;;;;2.90;2.10;;;16.80;99.90;;;;;;5105392;28;20035;-82
2022/09/02 07:26:25;;;;;;;3.03;2.28;;;16.90;99.90;;;;;;5106906;28;20044;-84
2022/09/02 07:28:51;;;;;;;4.97;2.40;;;17.00;99.90;;;;;;5106627;28;20067;-80
2022/09/02 07:31:17;;;;;;;2.95;2.20;;;17.20;99.90;;;;;;5108652;28;20032;-82
2022/09/02 07:33:44;;;;;;;4.75;2.38;;;17.30;99.90;;;;;;5087427;28;20031;-82
2022/09/02 07:36:12;;;;;;;4.22;2.33;;;17.40;99.90;;;;;;5109733;28;20397;-82
2022/09/02 07:38:39;;;;;;;3.92;2.15;;;17.50;99.90;;;;;;5096223;28;20040;-82
2022/09/02 07:41:06;;;;;;;3.55;2.50;;;17.60;99.90;;;;;;5090071;28;20035;-81
2022/09/02 07:43:33;;;;;;;3.00;1.98;;;17.70;99.90;;;;;;5102319;28;20047;-82
2022/09/02 07:45:59;;;;;;;4.80;2.42;;;17.80;99.90;;;;;;5081311;28;20628;-82
2022/09/02 07:48:27;;;;;;;4.20;2.38;;;17.90;99.90;;;;;;5112009;28;20038;-82
2022/09/02 07:50:53;;;;;;;4.07;2.28;;;18.00;99.90;;;;;;5093355;28;20027;-82
2022/09/02 07:53:19;;;;;;;3.10;2.10;;;18.20;99.90;;;;;;5110160;28;20031;-82
2022/09/02 07:55:46;;;;;;;5.32;2.00;;;18.30;99.90;;;;;;5102040;28;20032;-82
2022/09/02 07:58:13;;;;;;;7.57;2.05;;;18.30;99.90;;;;;;5085792;28;20047;-84
2022/09/02 08:00:40;;;;;;;4.25;1.73;;;18.40;99.90;;;;;;5105712;28;20890;-83
2022/09/02 08:03:07;;;;;;;3.20;2.05;;;18.50;99.90;;;;;;5089449;28;20031;-82
2022/09/02 08:05:34;;;;;;;3.25;2.00;;;18.70;99.90;;;;;;5108945;28;20759;-83
2022/09/02 08:08:00;;;;;;;2.92;1.80;;;18.80;99.90;;;;;;5106614;28;20035;-82
2022/09/02 08:10:27;;;;;;;4.85;2.10;;;18.80;99.90;;;;;;5104532;28;20595;-81
2022/09/02 08:12:57;;;;;;;6.00;2.00;;;18.90;99.90;;;;;;5111322;28;20042;-84
2022/09/02 08:15:27;;;;;;;3.65;2.00;;;19.00;99.90;;;;;;5110510;28;20035;-81
2022/09/02 08:17:54;;;;;;;4.75;2.00;;;19.20;99.90;;;;;;5104344;28;20136;-82
2022/09/02 08:20:20;;;;;;;4.15;1.85;;;19.20;99.90;;;;;;5105674;28;20043;-82
2022/09/02 08:22:46;;;;;;;4.03;1.88;;;19.30;99.90;;;;;;5106616;28;20074;-84
2022/09/02 08:25:11;;;;;;;4.40;2.40;;;19.40;99.90;;;;;;5107714;28;20092;-82
2022/09/02 08:27:38;;;;;;;4.43;2.40;;;19.50;99.90;;;;;;5110616;28;20128;-82
2022/09/02 08:30:06;;;;;;;5.80;2.40;;;19.50;99.90;;;;;;5102635;28;20040;-80
2022/09/02 08:32:31;;;;;;;4.13;2.25;;;19.60;99.90;;;;;;5084202;28;20440;-81
2022/09/02 08:35:01;;;;;;;4.07;2.15;;;19.70;99.90;;;;;;5104993;28;20051;-83
2022/09/02 08:37:27;;;;;;;4.70;2.47;;;19.80;99.90;;;;;;5109299;28;20035;-78
2022/09/02 08:39:53;;;;;;;4.72;2.95;;;19.90;99.90;;;;;;5092956;28;20043;-82
2022/09/02 08:42:28;;;;;;;7.57;2.70;;;20.00;99.90;;;;;;5111111;28;20048;-81
2022/09/02 08:44:59;;;;;;;5.00;2.13;;;20.00;99.90;;;;;;5084051;28;20042;-79
2022/09/02 08:47:30;;;;;;;5.47;2.50;;;20.10;99.90;;;;;;5111780;28;20031;-83
2022/09/02 08:50:00;;;;;;;4.63;2.60;;;20.20;99.90;;;;;;5112683;28;20047;-83
2022/09/02 08:52:56;;;;;;;4.40;2.08;;;20.30;99.90;;;;;;5111918;28;20118;-78
2022/09/02 08:55:28;;;;;;;3.47;2.20;;;20.30;99.90;;;;;;5088560;28;20043;-80
2022/09/02 08:57:55;;;;;;;4.28;2.20;;;20.40;99.90;;;;;;5106001;28;20383;-81
2022/09/02 09:00:21;;;;;;;3.33;1.90;;;20.50;99.90;;;;;;5111248;28;20043;-81
2022/09/02 09:03:00;;;;;;;5.38;2.05;;;20.60;99.90;;;;;;5105026;28;20043;-80
2022/09/02 09:05:47;;;;;;;2.88;1.65;;;20.60;99.80;;;;;;5095205;28;20035;-82
2022/09/02 09:08:25;;;;;;;5.22;1.77;;;20.60;99.80;;;;;;5108075;28;20046;-81
2022/09/02 09:11:33;;;;;;;5.35;1.50;;;20.70;99.60;;;;;;5091750;28;20032;-79
2022/09/02 09:14:29;;;;;;;3.83;1.70;;;20.70;98.40;;;;;;5097335;28;20039;-82
2022/09/02 09:16:58;;;;;;;3.83;1.58;;;20.80;99.10;;;;;;5121248;27;20055;-81
2022/09/02 09:19:47;;;;;;;4.30;1.70;;;20.90;98.70;;;;;;5109908;28;20046;-78
2022/09/02 09:22:17;;;;;;;3.53;1.30;;;20.90;97.50;;;;;;5100026;28;20047;-80
2022/09/02 09:24:46;;;;;;;3.83;1.50;;;21.00;98.40;;;;;;5096668;28;20040;-77
2022/09/02 09:27:16;;;;;;;4.70;1.42;;;21.10;98.30;;;;;;5103393;28;20443;-82
2022/09/02 09:29:43;;;;;;;3.70;1.35;;;21.10;98.00;;;;;;5109775;28;20035;-78
2022/09/02 09:32:33;;;;;;;2.85;1.30;;;21.10;97.70;;;;;;5104107;28;20044;-79
2022/09/02 09:35:06;;;;;;;3.22;1.48;;;21.20;97.50;;;;;;5104809;28;20032;-82
2022/09/02 09:37:45;;;;;;;5.37;1.37;;;21.20;97.20;;;;;;5094644;28;20032;-80
2022/09/02 09:40:16;;;;;;;2.60;1.40;;;21.20;96.90;;;;;;5096382;28;20472;-77
2022/09/02 09:42:42;;;;;;;5.50;1.25;;;21.30;96.80;;;;;;5091279;28;20044;-81
2022/09/02 09:45:24;;;;;;;12.23;1.40;;;21.40;96.90;;;;;;5073960;28;20513;-83
2022/09/02 09:48:14;;;;;;;4.85;1.38;;;21.50;96.80;;;;;;5090854;28;20036;-80
2022/09/02 09:50:39;;;;;;;2.47;1.23;;;21.50;96.60;;;;;;5096727;28;20115;-80
2022/09/02 09:53:21;;;;;;;2.33;1.23;;;21.60;96.40;;;;;;5105772;28;20118;-78
2022/09/02 09:55:56;;;;;;;2.70;1.40;;;21.70;96.10;;;;;;5084611;28;20035;-80
2022/09/02 09:58:29;;;;;;;4.28;1.50;;;21.70;95.70;;;;;;5093958;28;20378;-80
2022/09/02 10:00:57;;;;;;;3.53;1.30;;;21.80;95.80;;;;;;5098744;28;20032;-80
2022/09/02 10:03:26;;;;;;;2.78;1.27;;;21.90;95.70;;;;;;5093205;28;20484;-80
2022/09/02 10:05:55;;;;;;;3.38;1.65;;;21.90;95.40;;;;;;5091796;28;20440;-80
2022/09/02 10:08:24;;;;;;;2.47;1.10;;;22.00;95.20;;;;;;5095456;28;20136;-83
2022/09/02 10:11:07;;;;;;;3.95;1.40;;;22.10;95.10;;;;;;5092788;28;20039;-80
2022/09/02 10:13:35;;;;;;;3.28;1.20;;;22.10;95.40;;;;;;5092115;28;20035;-82
2022/09/02 10:16:30;;;;;;;5.50;1.33;;;22.30;95.20;;;;;;5109015;28;20043;-77
2022/09/02 10:19:11;;;;;;;6.55;1.25;;;22.40;94.90;;;;;;5093594;28;20115;-81
2022/09/02 10:22:05;;;;;;;2.35;1.17;;;22.40;94.60;;;;;;5096704;28;20051;-78
2022/09/02 10:24:54;;;;;;;5.13;1.17;;;22.40;94.30;;;;;;5106290;28;20063;-81
2022/09/02 10:27:36;;;;;;;5.15;1.30;;;22.50;94.70;;;;;;5105166;28;20096;-81
2022/09/02 10:30:08;;;;;;;2.88;1.10;;;22.60;94.20;;;;;;5099164;28;20036;-81
2022/09/02 10:32:52;;;;;;;3.47;1.20;;;22.60;94.00;;;;;;5100640;28;20067;-80
2022/09/02 10:35:32;;;;;;;;;;;22.70;93.80;;;;;;5094865;28;20532;-78
2022/09/02 10:38:10;;;;;;;2.15;1.10;;;22.80;94.20;;;;;;5113467;28;20365;-81
2022/09/02 10:41:00;;;;;;;4.00;1.27;;;22.90;93.70;;;;;;5113841;28;20035;-80
2022/09/02 10:43:51;;;;;;;2.70;1.10;;;23.00;93.20;;;;;;5095948;28;20040;-82
2022/09/02 10:46:21;;;;;;;6.75;1.50;;;23.10;93.40;;;;;;5110864;28;20047;-77
2022/09/02 10:49:09;;;;;;;3.95;1.27;;;23.20;93.20;;;;;;5089008;28;20031;-81
2022/09/02 10:52:02;;;;;;;12.15;1.60;;;23.40;92.90;;;;;;5108648;28;20028;-82
2022/09/02 10:54:55;;;;;;;2.80;1.10;;;23.40;92.50;;;;;;5094561;28;20040;-80
2022/09/02 10:57:29;;;;;;;3.42;1.38;;;23.50;92.70;;;;;;5095950;28;20606;-83
2022/09/02 11:00:08;;;;;;;6.78;1.30;;;23.70;92.20;;;;;;5097917;28;20066;-80
2022/09/02 11:02:51;;;;;;;2.60;1.10;;;23.70;91.90;;;;;;5099588;28;20054;-82
2022/09/02 11:05:27;;;;;;;6.35;1.13;;;23.80;92.10;;;;;;5093135;28;20051;-82
2022/09/02 11:08:11;;;;;;;4.50;1.08;;;23.90;91.60;;;;;;5095862;28;20036;-80
2022/09/02 11:10:42;;;;;;;1.88;0.90;;;24.00;91.50;;;;;;5080425;28;20459;-81
2022/09/02 11:13:20;;;;;;;2.20;1.02;;;24.20;89.20;;;;;;5094182;28;20065;-81
2022/09/02 11:16:11;;;;;;;2.60;1.00;;;24.30;91.10;;;;;;5106916;28;20028;-80
2022/09/02 11:19:06;;;;;;;3.25;1.10;;;24.40;91.00;;;;;;5102945;28;20031;-80
2022/09/02 11:22:09;;;;;;;4.72;1.10;;;24.60;90.80;;;;;;5112704;28;20039;-79
2022/09/02 11:25:00;;;;;;;2.63;0.90;;;24.70;90.70;;;;;;5090925;28;20050;-79
2022/09/02 11:27:44;;;;;;;4.78;1.25;;;24.70;90.10;;;;;;5093613;28;20060;-80
2022/09/02 11:30:21;;;;;;;4.60;0.98;;;24.80;89.30;;;;;;5090182;28;20044;-84
2022/09/02 11:33:03;;;;;;;5.32;1.05;;;24.90;90.00;;;;;;5103657;28;20568;-81
2022/09/02 11:35:36;;;;;;;3.55;1.50;;;25.00;89.30;;;;;;5103558;28;20035;-82
2022/09/02 11:38:06;;;;;;;3.75;1.15;;;25.10;89.30;;;;;;5104093;28;20031;-82
2022/09/02 11:40:47;;;;;;;3.97;1.13;;;25.20;88.90;;;;;;5094132;28;20505;-82
2022/09/02 11:43:18;;;;;;;2.55;1.30;;;25.30;88.80;;;;;;5095729;28;20120;-82
2022/09/02 11:46:22;;;;;;;3.03;1.17;;;25.50;88.80;;;;;;5095417;28;20469;-82
2022/09/02 11:49:21;;;;;;;4.68;1.15;;;25.70;88.70;;;;;;5095387;28;20047;-81
2022/09/02 11:51:54;;;;;;;3.33;1.20;;;25.90;88.30;;;;;;5076941;28;20047;-82
2022/09/02 11:54:22;;;;;;;4.45;1.10;;;25.90;86.20;;;;;;5106901;28;20048;-82
2022/09/02 11:56:55;;;;;;;1.90;1.10;;;26.20;87.10;;;;;;5108440;28;20027;-80
2022/09/02 11:59:51;;;;;;;3.38;1.25;;;26.30;86.70;;;;;;5085497;28;20040;-80
2022/09/02 12:02:37;;;;;;;4.22;1.20;;;26.40;86.20;;;;;;5069297;28;20071;-78
2022/09/02 12:05:28;;;;;;;2.42;1.20;;;26.60;86.30;;;;;;5082294;28;20079;-81
2022/09/02 12:07:56;;;;;;;5.70;1.00;;;26.70;86.70;;;;;;5107429;28;20039;-79
2022/09/02 12:10:42;;;;;;;1.60;0.90;;;26.80;85.50;;;;;;5103100;28;20127;-83
2022/09/02 12:13:30;;;;;;;1.77;0.98;;;27.00;84.80;;;;;;5075294;28;20046;-84
2022/09/02 12:16:11;;;;;;;5.32;1.00;;;27.00;80.80;;;;;;5100870;28;20122;-79
2022/09/02 12:18:38;;;;;;;7.93;0.93;;;27.20;82.80;;;;;;5108644;28;20036;-82
2022/09/02 12:21:10;;;;;;;2.08;0.90;;;27.20;82.10;;;;;;5079982;28;20648;-83
2022/09/02 12:23:47;;;;;;;2.08;0.85;;;27.20;80.60;;;;;;5088595;28;20083;-83
2022/09/02 12:26:14;;;;;;;1.25;0.70;;;27.30;81.70;;;;;;5101007;28;20057;-80
2022/09/02 12:28:42;;;;;;;2.15;1.00;;;27.40;81.40;;;;;;5087991;28;20043;-81
2022/09/02 12:31:13;;;;;;;1.88;0.73;;;27.30;80.30;;;;;;5108557;28;20140;-81
2022/09/02 12:33:40;;;;;;;2.42;1.10;;;27.40;79.90;;;;;;5086758;28;21283;-78
2022/09/02 12:36:07;;;;;;;2.65;0.90;;;27.50;79.20;;;;;;5096134;28;20072;-81
2022/09/02 12:38:33;;;;;;;4.10;1.02;;;27.50;78.60;;;;;;5107208;28;20439;-81
2022/09/02 12:41:05;;;;;;;2.03;0.75;;;27.60;78.50;;;;;;5104354;28;20040;-81
2022/09/02 12:43:45;;;;;;;1.58;0.80;;;27.60;79.00;;;;;;5105706;28;20089;-81
2022/09/02 12:46:43;;;;;;;5.65;0.90;;;27.80;78.60;;;;;;5109300;28;20047;-81
2022/09/02 12:49:27;;;;;;;5.03;0.90;;;28.00;77.80;;;;;;5096617;28;20075;-80
2022/09/02 12:51:56;;;;;;;1.77;0.80;;;28.10;77.40;;;;;;5103838;28;20040;-80
2022/09/02 12:54:26;;;;;;;2.28;0.90;;;28.20;76.20;;;;;;5107083;28;20120;-81
2022/09/02 12:56:52;;;;;;;3.53;0.90;;;28.30;75.60;;;;;;5109126;28;20063;-80
2022/09/02 12:59:30;;;;;;;2.08;0.85;;;28.60;76.20;;;;;;5084506;28;20676;-81
2022/09/02 13:02:33;;;;;;;3.90;0.75;;;28.60;76.20;;;;;;5106362;28;20064;-81
2022/09/02 13:05:46;;;;;;;4.88;1.00;;;28.70;73.70;;;;;;5082524;28;20045;-80
2022/09/02 13:08:31;;;;;;;3.90;0.85;;;28.70;74.80;;;;;;5098487;28;20396;-80
2022/09/02 13:11:17;;;;;;;3.10;0.85;;;28.60;74.20;;;;;;5098071;28;20127;-79